PAGY/SGY METAR and TAF weather

Enter ICAO airport designator
Station Type Date Time Source
PAGY METAR 2019/10/14 05:53 UTC NOAA

PAGY 140553Z AUTO 03004KT 10SM CLR 00/M03 A3007 RMK SLP183 T00001028 10083 20000 51006 TSNO VIA AUTODIAL


Station Type Date Time Source
PAGY Decoded METAR 2019/10/14 05:53 UTC NOAA

SKAGWAY AIRPORT, AK, United States (PAGY) 59-28N 135-19W 5M
Oct 14, 2019 - 01:53 AM EDT / 2019.10.14 0553 UTC
Wind: from the NNE (030 degrees) at 5 MPH (4 KT):0
Visibility: 10 mile(s):0
Sky conditions: clear
Temperature: 32.0 F (0.0 C)
Windchill: 26 F (-3 C):1
Dew Point: 27.0 F (-2.8 C)
Relative Humidity: 81%
Pressure (altimeter): 30.07 in. Hg (1018 hPa)
Pressure tendency: 0.02 inches (0.6 hPa) higher than three hours ago
ob: PAGY 140553Z AUTO 03004KT 10SM CLR 00/M03 A3007 RMK SLP183 T00001028 10083 20000 51006 TSNO VIA AUTODIAL
cycle: 6

Station Type Date Time Source
PAGY TAF 2019/10/14 06:30 UTC NOAA

TAF PAGY 140529Z 1406/1506 05004KT P6SM SKC
FM141300 03014KT P6SM SCT200
AMD LTD TO CLD VIS AND WIND

Example: see airport list